createdAt,value
2022-11-24T00:01:24.064Z,100029.56
2022-11-24T00:04:17.221Z,100031.41
2022-11-24T00:06:44.846Z,100046.03
2022-11-24T00:09:14.198Z,100047.09
2022-11-24T00:11:41.971Z,100060.16
2022-11-24T00:14:10.452Z,100046.09
2022-11-24T00:17:04.519Z,100061.06
2022-11-24T00:19:32.128Z,100058.88
2022-11-24T00:21:59.691Z,100059.81
2022-11-24T00:24:27.309Z,100066.13
2022-11-24T00:26:55.996Z,100079.16
2022-11-24T00:29:23.599Z,100075.25
2022-11-24T00:31:51.440Z,100082.97
2022-11-24T00:34:19.070Z,100079.88
2022-11-24T00:36:46.680Z,100076.34
2022-11-24T00:39:15.970Z,100079.69
2022-11-24T00:41:43.934Z,100080.09
2022-11-24T00:44:12.597Z,100083.81
2022-11-24T00:46:40.489Z,100079.81
2022-11-24T00:49:09.309Z,100091.91
2022-11-24T00:51:37.016Z,100082.44
2022-11-24T00:54:04.611Z,100079.09
2022-11-24T00:56:33.699Z,100077.00
2022-11-24T00:59:01.416Z,100082.81
2022-11-24T01:01:31.336Z,100073.75
2022-11-24T01:04:01.570Z,100090.31
2022-11-24T01:06:31.162Z,100088.53
2022-11-24T01:08:59.022Z,100087.09
2022-11-24T01:11:54.568Z,100081.44
2022-11-24T01:14:24.407Z,100095.53
2022-11-24T01:16:53.722Z,100112.63
2022-11-24T01:19:21.412Z,100114.41
2022-11-24T01:21:49.205Z,100116.09
2022-11-24T01:24:17.601Z,100117.97
2022-11-24T01:26:45.486Z,100122.00
2022-11-24T01:29:15.246Z,100120.03
2022-11-24T01:31:42.887Z,100116.66
2022-11-24T01:34:11.565Z,100117.50
2022-11-24T01:36:39.803Z,100116.25
2022-11-24T01:39:08.616Z,100127.22
2022-11-24T01:41:36.339Z,100119.16
2022-11-24T01:44:23.064Z,100131.75
2022-11-24T01:46:55.283Z,100116.63
2022-11-24T01:49:31.420Z,100122.97
2022-11-24T01:52:05.627Z,100122.59
2022-11-24T01:54:43.254Z,100113.16
2022-11-24T01:57:19.741Z,100128.22
2022-11-24T01:59:50.687Z,100120.53
2022-11-24T02:02:29.502Z,100135.41
2022-11-24T02:05:03.178Z,100134.34
2022-11-24T02:07:33.869Z,100129.91
2022-11-24T02:10:06.347Z,100131.38
2022-11-24T02:12:36.991Z,100128.78
2022-11-24T02:15:05.286Z,100130.75
2022-11-24T02:17:32.902Z,100150.84
2022-11-24T02:20:09.280Z,100150.97
2022-11-24T02:22:47.131Z,100161.81
2022-11-24T02:25:34.280Z,100150.03
2022-11-24T02:28:07.308Z,100147.13
2022-11-24T02:30:37.430Z,100148.19
2022-11-24T02:33:05.240Z,100161.69
2022-11-24T02:35:34.429Z,100164.69
2022-11-24T02:38:02.029Z,100169.44
2022-11-24T02:40:31.212Z,100165.69
2022-11-24T02:43:04.688Z,100170.84
2022-11-24T02:45:32.352Z,100178.75
2022-11-24T02:47:59.976Z,100187.00
2022-11-24T02:50:27.741Z,100186.44
2022-11-24T02:52:56.456Z,100175.22
2022-11-24T02:55:24.047Z,100177.75
2022-11-24T02:57:51.740Z,100181.44
2022-11-24T03:00:19.429Z,100187.41
2022-11-24T03:02:47.437Z,100182.88
2022-11-24T03:05:15.184Z,100194.84
2022-11-24T03:07:42.898Z,100181.28
2022-11-24T03:10:11.640Z,100188.88
2022-11-24T03:12:39.287Z,100191.94
2022-11-24T03:15:11.947Z,100188.09
2022-11-24T03:17:39.594Z,100194.72
2022-11-24T03:20:08.973Z,100198.53
2022-11-24T03:22:37.468Z,100201.50
2022-11-24T03:25:05.485Z,100209.59
2022-11-24T03:27:33.083Z,100212.41
2022-11-24T03:30:00.671Z,100204.84
2022-11-24T03:32:29.751Z,100222.28
2022-11-24T03:34:57.326Z,100211.56
2022-11-24T03:37:25.038Z,100209.94
2022-11-24T03:39:52.683Z,100217.66
2022-11-24T03:42:23.036Z,100227.53
2022-11-24T03:44:50.748Z,100222.38
2022-11-24T03:47:18.328Z,100213.31
2022-11-24T03:49:46.041Z,100219.22
2022-11-24T03:52:13.707Z,100209.81
2022-11-24T03:54:42.608Z,100214.53
2022-11-24T03:57:10.176Z,100208.78
2022-11-24T03:59:39.361Z,100210.91
2022-11-24T04:02:08.002Z,100218.63
2022-11-24T04:04:39.752Z,100204.56
2022-11-24T04:07:07.387Z,100213.31
2022-11-24T04:09:34.991Z,100227.94
2022-11-24T04:12:20.859Z,100231.09
2022-11-24T04:14:48.565Z,100227.69
2022-11-24T04:17:16.242Z,100243.34
2022-11-24T04:19:43.902Z,100247.28
2022-11-24T04:22:12.645Z,100238.69
2022-11-24T04:24:40.289Z,100244.88
2022-11-24T04:27:08.987Z,100238.59
2022-11-24T04:29:36.600Z,100238.19
2022-11-24T04:32:06.610Z,100229.31
2022-11-24T04:34:34.448Z,100245.88
2022-11-24T04:37:02.356Z,100257.75
2022-11-24T04:39:30.093Z,100250.63
2022-11-24T04:41:58.429Z,100245.88
2022-11-24T04:44:26.533Z,100248.28
2022-11-24T04:46:54.260Z,100262.13
2022-11-24T04:49:21.969Z,100257.16
2022-11-24T04:51:49.824Z,100264.66
2022-11-24T04:54:17.437Z,100263.47
2022-11-24T04:56:45.124Z,100259.31
2022-11-24T05:03:18.084Z,100285.78
2022-11-24T05:05:47.730Z,100284.56
2022-11-24T05:08:15.249Z,100281.28
2022-11-24T05:10:43.165Z,100282.75
2022-11-24T05:13:12.675Z,100287.81
2022-11-24T05:15:41.649Z,100285.66
2022-11-24T05:18:13.532Z,100302.03
2022-11-24T05:20:48.194Z,100310.94
2022-11-24T05:23:16.158Z,100320.88
2022-11-24T05:25:47.642Z,100325.50
2022-11-24T05:28:16.211Z,100327.44
2022-11-24T05:30:44.582Z,100325.94
2022-11-24T05:33:23.104Z,100326.25
2022-11-24T05:35:50.952Z,100331.34
2022-11-24T05:38:18.826Z,100340.41
2022-11-24T05:40:46.616Z,100343.66
2022-11-24T05:43:16.856Z,100343.50
2022-11-24T05:52:04.622Z,100400.94
2022-11-24T05:54:38.996Z,100401.34
2022-11-24T05:57:09.056Z,100416.41
2022-11-24T05:59:43.865Z,100404.03
2022-11-24T06:02:12.900Z,100399.44
2022-11-24T06:17:21.271Z,100414.75
2022-11-24T06:19:50.279Z,100424.97
2022-11-24T06:22:19.359Z,100434.56
2022-11-24T06:24:51.862Z,100435.75
2022-11-24T06:27:22.550Z,100443.84
2022-11-24T06:29:50.233Z,100433.97
2022-11-24T06:32:34.444Z,100449.34
2022-11-24T06:35:02.415Z,100455.09
2022-11-24T06:37:30.039Z,100453.75
2022-11-24T06:39:57.595Z,100445.69
2022-11-24T06:42:26.184Z,100445.78
2022-11-24T06:44:53.804Z,100454.38
2022-11-24T06:47:21.482Z,100452.03
2022-11-24T06:49:49.122Z,100459.19
2022-11-24T06:52:16.773Z,100471.84
2022-11-24T06:54:44.491Z,100455.53
2022-11-24T06:57:12.188Z,100453.59
2022-11-24T06:59:39.853Z,100461.34
2022-11-24T07:02:10.033Z,100467.13
2022-11-24T07:04:37.797Z,100473.56
2022-11-24T07:07:05.383Z,100481.00
2022-11-24T07:09:33.083Z,100490.50
2022-11-24T07:12:02.472Z,100487.44
2022-11-24T07:14:30.050Z,100488.50
2022-11-24T07:16:57.699Z,100484.22
2022-11-24T07:19:51.428Z,100499.41
2022-11-24T07:22:18.964Z,100497.97
2022-11-24T07:24:46.651Z,100508.38
2022-11-24T07:27:14.281Z,100510.47
2022-11-24T07:29:41.863Z,100516.97
2022-11-24T07:32:09.429Z,100519.00
2022-11-24T07:34:37.240Z,100525.56
2022-11-24T07:37:05.035Z,100544.13
2022-11-24T07:39:32.721Z,100538.88
2022-11-24T07:42:00.681Z,100533.34
2022-11-24T07:44:28.300Z,100542.22
2022-11-24T07:46:57.223Z,100529.34
2022-11-24T07:49:24.787Z,100524.50
2022-11-24T07:51:54.450Z,100536.09
2022-11-24T07:54:22.055Z,100546.84
2022-11-24T07:56:49.851Z,100551.44
2022-11-24T07:59:17.595Z,100547.16
2022-11-24T08:01:45.327Z,100560.25
2022-11-24T08:04:39.378Z,100579.19
2022-11-24T08:07:07.049Z,100571.38
2022-11-24T08:10:00.210Z,100587.78
2022-11-24T08:12:27.864Z,100582.22
2022-11-24T08:14:57.564Z,100586.72
2022-11-24T08:17:25.728Z,100585.16
2022-11-24T08:19:53.347Z,100573.19
2022-11-24T08:22:21.249Z,100564.47
2022-11-24T08:24:51.567Z,100576.91
2022-11-24T08:27:19.708Z,100589.28
2022-11-24T08:29:47.324Z,100593.72
2022-11-24T08:32:20.588Z,100589.97
2022-11-24T08:34:49.913Z,100575.75
2022-11-24T08:37:18.652Z,100579.94
2022-11-24T08:39:46.303Z,100586.84
2022-11-24T08:42:13.912Z,100583.56
2022-11-24T08:44:41.620Z,100583.13
2022-11-24T08:47:09.383Z,100589.38
2022-11-24T08:49:37.018Z,100598.81
2022-11-24T08:52:04.885Z,100601.97
2022-11-24T08:54:32.966Z,100619.59
2022-11-24T08:57:00.845Z,100633.78
2022-11-24T08:59:28.331Z,100628.47
2022-11-24T09:01:56.016Z,100640.19
2022-11-24T09:04:23.636Z,100633.13
2022-11-24T09:06:51.070Z,100630.00
2022-11-24T09:09:18.623Z,100631.25
2022-11-24T09:11:46.087Z,100623.75
2022-11-24T09:14:13.548Z,100641.41
2022-11-24T09:16:41.163Z,100650.66
2022-11-24T09:19:08.634Z,100646.47
2022-11-24T09:21:40.287Z,100634.41
2022-11-24T09:24:08.674Z,100639.72
2022-11-24T09:26:39.773Z,100644.22
2022-11-24T09:29:11.225Z,100642.84
2022-11-24T09:31:39.594Z,100648.38
2022-11-24T09:34:09.214Z,100639.41
2022-11-24T09:36:36.915Z,100632.63
2022-11-24T09:39:04.906Z,100634.72
2022-11-24T09:42:06.553Z,100640.53
2022-11-24T09:45:07.394Z,100633.84
2022-11-24T09:47:49.161Z,100635.28
2022-11-24T09:50:25.573Z,100628.56
2022-11-24T09:53:16.865Z,100626.28
2022-11-24T09:55:53.625Z,100618.34
2022-11-24T09:58:33.070Z,100632.84
2022-11-24T10:01:04.634Z,100615.78
2022-11-24T10:03:49.157Z,100617.22
2022-11-24T10:06:24.774Z,100620.47
2022-11-24T10:09:13.318Z,100614.75
2022-11-24T10:11:58.881Z,100621.59
2022-11-24T10:15:15.734Z,100637.03
2022-11-24T10:18:16.737Z,100636.28
2022-11-24T10:21:05.980Z,100640.25
2022-11-24T10:23:45.723Z,100636.06
2022-11-24T10:26:21.022Z,100634.91
2022-11-24T10:28:55.386Z,100638.53
2022-11-24T10:31:28.916Z,100630.31
2022-11-24T10:34:00.693Z,100631.00
2022-11-24T10:37:12.629Z,100643.47
2022-11-24T10:39:40.145Z,100643.22
2022-11-24T10:42:10.338Z,100639.03
2022-11-24T10:44:39.311Z,100637.38
2022-11-24T10:47:18.452Z,100648.31
2022-11-24T10:50:00.215Z,100642.38
2022-11-24T10:52:31.612Z,100644.63
2022-11-24T10:55:01.892Z,100643.94
2022-11-24T10:57:40.467Z,100650.09
2022-11-24T11:00:19.861Z,100639.38
2022-11-24T11:02:49.320Z,100637.03
2022-11-24T11:05:42.161Z,100643.00
2022-11-24T11:08:14.100Z,100632.91
2022-11-24T11:10:43.530Z,100644.19
2022-11-24T11:13:24.172Z,100642.13
2022-11-24T11:15:52.331Z,100633.13
2022-11-24T11:18:21.247Z,100621.34
2022-11-24T11:20:56.479Z,100623.97
2022-11-24T11:23:28.603Z,100630.69
2022-11-24T11:26:27.913Z,100631.50
2022-11-24T11:34:47.219Z,100631.66
2022-11-24T11:37:15.988Z,100626.91
2022-11-24T11:39:48.879Z,100632.13
2022-11-24T11:42:45.313Z,100622.31
2022-11-24T11:45:18.313Z,100625.06
2022-11-24T11:48:32.482Z,100622.41
2022-11-24T11:51:25.906Z,100622.34
2022-11-24T11:54:20.099Z,100628.50
2022-11-24T11:56:53.000Z,100619.63
2022-11-24T11:59:30.452Z,100627.63
2022-11-24T12:02:36.686Z,100628.59
2022-11-24T12:05:25.072Z,100627.19
2022-11-24T12:08:17.545Z,100648.88
2022-11-24T12:10:59.568Z,100642.72
2022-11-24T12:13:49.066Z,100638.53
2022-11-24T12:17:04.414Z,100626.91
2022-11-24T12:20:03.869Z,100640.06
2022-11-24T12:22:46.377Z,100637.13
2022-11-24T12:25:22.867Z,100645.75
2022-11-24T12:28:09.805Z,100639.13
2022-11-24T12:31:01.120Z,100640.91
2022-11-24T12:33:34.711Z,100632.53
2022-11-24T12:36:24.254Z,100631.66
2022-11-24T12:39:04.516Z,100648.38
2022-11-24T12:41:42.399Z,100650.00
2022-11-24T12:44:47.409Z,100632.53
2022-11-24T12:47:38.468Z,100641.88
2022-11-24T12:50:11.614Z,100645.47
2022-11-24T12:52:44.221Z,100646.31
2022-11-24T12:55:21.041Z,100649.88
2022-11-24T12:58:20.485Z,100636.63
2022-11-24T13:01:18.646Z,100648.78
2022-11-24T13:03:55.187Z,100651.50
2022-11-24T13:06:35.318Z,100648.78
2022-11-24T13:09:13.315Z,100651.59
2022-11-24T13:11:49.101Z,100660.47
2022-11-24T13:14:16.751Z,100655.38
2022-11-24T13:17:28.109Z,100654.25
2022-11-24T13:19:44.425Z,100651.50
2022-11-24T13:22:17.130Z,100662.84
2022-11-24T13:24:45.315Z,100665.09
2022-11-24T13:27:15.710Z,100655.31
2022-11-24T13:29:45.385Z,100653.47
2022-11-24T13:32:12.914Z,100643.91
2022-11-24T13:34:40.449Z,100645.63
2022-11-24T13:37:34.968Z,100646.53
2022-11-24T13:40:23.418Z,100650.91
2022-11-24T13:42:57.412Z,100649.03
2022-11-24T13:45:40.353Z,100655.09
2022-11-24T13:48:20.653Z,100662.28
2022-11-24T13:50:51.764Z,100659.59
2022-11-24T13:53:36.381Z,100664.91
2022-11-24T13:56:23.998Z,100669.34
2022-11-24T13:58:58.702Z,100658.13
2022-11-24T14:01:35.742Z,100657.13
2022-11-24T14:04:43.367Z,100644.88
2022-11-24T14:07:10.316Z,100660.69
2022-11-24T14:09:44.873Z,100662.34
2022-11-24T14:12:22.070Z,100660.63
2022-11-24T14:14:51.361Z,100653.69
2022-11-24T14:17:23.356Z,100646.84
2022-11-24T14:19:53.506Z,100642.47
2022-11-24T14:22:22.575Z,100631.22
2022-11-24T14:25:33.271Z,100636.56
2022-11-24T14:28:01.122Z,100634.91
2022-11-24T14:30:28.737Z,100635.91
2022-11-24T14:33:01.547Z,100635.97
2022-11-24T14:35:34.470Z,100640.44
2022-11-24T14:38:04.663Z,100635.09
2022-11-24T14:40:41.157Z,100638.59
2022-11-24T14:43:22.111Z,100643.19
2022-11-24T14:45:58.405Z,100645.78
2022-11-24T14:48:31.682Z,100651.09
2022-11-24T14:51:06.768Z,100658.97
2022-11-24T14:53:35.522Z,100659.88
2022-11-24T14:56:21.770Z,100665.28
2022-11-24T14:58:49.542Z,100657.41
2022-11-24T15:01:33.190Z,100655.72
2022-11-24T15:07:27.136Z,100661.13
2022-11-24T15:10:00.139Z,100676.94
2022-11-24T15:12:37.992Z,100674.34
2022-11-24T15:15:08.096Z,100674.38
2022-11-24T15:17:35.582Z,100683.16
2022-11-24T15:20:10.793Z,100675.28
2022-11-24T15:22:43.746Z,100692.78
2022-11-24T15:25:32.489Z,100683.16
2022-11-24T15:28:00.904Z,100684.94
2022-11-24T15:30:29.406Z,100684.06
2022-11-24T15:32:58.693Z,100694.56
2022-11-24T15:35:30.707Z,100690.16
2022-11-24T15:37:58.862Z,100696.31
2022-11-24T15:40:26.271Z,100677.94
2022-11-24T15:42:59.602Z,100691.94
2022-11-24T15:45:30.923Z,100683.16
2022-11-24T15:47:58.340Z,100691.88
2022-11-24T15:50:25.853Z,100687.53
2022-11-24T15:52:53.309Z,100695.44
2022-11-24T15:55:22.448Z,100691.00
2022-11-24T15:57:50.049Z,100687.50
2022-11-24T16:00:20.023Z,100695.34
2022-11-24T16:02:48.782Z,100697.97
2022-11-24T16:05:17.666Z,100702.31
2022-11-24T16:07:45.292Z,100704.06
2022-11-24T16:10:23.176Z,100706.72
2022-11-24T16:12:50.638Z,100711.91
2022-11-24T16:15:18.098Z,100718.81
2022-11-24T16:17:45.545Z,100716.06
2022-11-24T16:20:13.072Z,100718.72
2022-11-24T16:22:40.721Z,100723.06
2022-11-24T16:25:08.758Z,100719.50
2022-11-24T16:27:36.599Z,100714.28
2022-11-24T16:30:06.758Z,100708.97
2022-11-24T16:32:35.038Z,100706.31
2022-11-24T16:35:02.754Z,100708.81
2022-11-24T16:37:30.275Z,100710.34
2022-11-24T16:39:58.524Z,100718.03
2022-11-24T16:42:25.984Z,100706.63
2022-11-24T16:44:53.515Z,100709.97
2022-11-24T16:47:21.211Z,100707.34
2022-11-24T16:49:49.271Z,100712.56
2022-11-24T16:52:17.112Z,100713.31
2022-11-24T16:54:46.540Z,100709.97
2022-11-24T16:57:15.309Z,100717.84
2022-11-24T16:59:43.587Z,100724.19
2022-11-24T17:02:13.012Z,100731.91
2022-11-24T17:04:43.194Z,100747.50
2022-11-24T17:07:10.823Z,100759.22
2022-11-24T17:09:40.842Z,100767.38
2022-11-24T17:12:08.406Z,100783.19
2022-11-24T17:14:37.126Z,100773.69
2022-11-24T17:17:04.869Z,100775.88
2022-11-24T17:19:32.677Z,100777.66
2022-11-24T17:22:00.285Z,100777.69
2022-11-24T17:24:27.865Z,100778.69
2022-11-24T17:26:55.384Z,100780.31
2022-11-24T17:29:22.932Z,100776.81
2022-11-24T17:31:50.506Z,100789.13
2022-11-24T17:34:18.168Z,100778.72
2022-11-24T17:36:46.165Z,100788.31
2022-11-24T17:39:13.688Z,100797.88
2022-11-24T17:41:41.341Z,100792.47
2022-11-24T17:44:10.718Z,100793.47
2022-11-24T17:46:39.209Z,100796.81
2022-11-24T17:49:13.187Z,100799.31
2022-11-24T17:51:40.701Z,100791.44
2022-11-24T17:54:39.153Z,100800.94
2022-11-24T17:56:55.670Z,100805.38
2022-11-24T17:59:23.070Z,100798.31
2022-11-24T18:01:50.546Z,100801.91
2022-11-24T18:04:18.066Z,100805.34
2022-11-24T18:06:46.203Z,100815.00
2022-11-24T18:09:13.769Z,100806.81
2022-11-24T18:11:41.217Z,100806.81
2022-11-24T18:14:09.968Z,100822.75
2022-11-24T18:16:37.561Z,100821.91
2022-11-24T18:19:10.645Z,100820.72
2022-11-24T18:21:40.436Z,100823.69
2022-11-24T18:24:09.973Z,100831.50
2022-11-24T18:26:38.397Z,100834.19
2022-11-24T18:29:06.178Z,100835.31
2022-11-24T18:31:35.635Z,100831.13
2022-11-24T18:34:05.444Z,100832.69
2022-11-24T18:36:33.964Z,100833.47
2022-11-24T18:39:06.968Z,100844.66
2022-11-24T18:41:35.468Z,100852.53
2022-11-24T18:44:07.681Z,100847.56
2022-11-24T18:46:35.927Z,100843.91
2022-11-24T18:49:03.855Z,100852.56
2022-11-24T18:51:31.461Z,100859.34
2022-11-24T18:53:58.887Z,100863.56
2022-11-24T18:56:27.049Z,100871.22
2022-11-24T18:58:56.163Z,100864.78
2022-11-24T19:01:26.721Z,100867.50
2022-11-24T19:03:59.522Z,100862.94
2022-11-24T19:06:34.838Z,100872.97
2022-11-24T19:09:05.975Z,100865.47
2022-11-24T19:11:37.089Z,100875.78
2022-11-24T19:14:07.266Z,100881.16
2022-11-24T19:16:35.306Z,100884.72
2022-11-24T19:19:03.742Z,100885.88
2022-11-24T19:21:34.104Z,100885.06
2022-11-24T19:24:05.220Z,100875.84
2022-11-24T19:26:35.249Z,100872.41
2022-11-24T19:29:04.043Z,100874.00
2022-11-24T19:31:31.847Z,100871.31
2022-11-24T19:33:59.854Z,100877.56
2022-11-24T19:36:27.405Z,100872.81
2022-11-24T19:38:56.818Z,100875.16
2022-11-24T19:41:29.643Z,100872.56
2022-11-24T19:43:58.493Z,100873.44
2022-11-24T19:46:28.064Z,100874.06
2022-11-24T19:48:57.175Z,100878.47
2022-11-24T19:51:27.327Z,100881.84
2022-11-24T19:53:54.784Z,100891.50
2022-11-24T19:56:25.005Z,100888.47
2022-11-24T19:58:54.502Z,100893.13
2022-11-24T20:01:26.225Z,100892.41
2022-11-24T20:04:00.312Z,100897.25
2022-11-24T20:06:31.054Z,100899.88
2022-11-24T20:09:00.573Z,100902.53
2022-11-24T20:11:28.906Z,100907.72
2022-11-24T20:13:56.999Z,100917.88
2022-11-24T20:16:30.042Z,100909.53
2022-11-24T20:19:00.039Z,100910.16
2022-11-24T20:21:31.541Z,100915.41
2022-11-24T20:24:01.861Z,100913.19
2022-11-24T20:26:35.262Z,100918.19
2022-11-24T20:29:04.088Z,100908.47
2022-11-24T20:31:36.033Z,100917.47
2022-11-24T20:34:05.231Z,100921.63
2022-11-24T20:36:34.885Z,100918.13
2022-11-24T20:39:05.713Z,100919.00
2022-11-24T20:41:35.386Z,100917.16
2022-11-24T20:44:07.321Z,100909.28
2022-11-24T20:46:37.656Z,100906.69
2022-11-24T20:49:06.793Z,100909.66
2022-11-24T20:51:37.163Z,100906.16
2022-11-24T20:54:07.534Z,100907.16
2022-11-24T20:56:38.254Z,100901.59
2022-11-24T20:59:05.749Z,100908.34
2022-11-24T21:01:38.832Z,100916.34
2022-11-24T21:04:09.223Z,100915.41
2022-11-24T21:06:37.934Z,100918.97
2022-11-24T21:09:08.007Z,100917.50
2022-11-24T21:11:36.827Z,100936.50
2022-11-24T21:14:04.957Z,100938.88
2022-11-24T21:16:37.492Z,100941.84
2022-11-24T21:19:17.699Z,100943.63
2022-11-24T21:21:54.290Z,100949.25
2022-11-24T21:24:21.906Z,100945.50
2022-11-24T21:26:52.657Z,100953.53
2022-11-24T21:29:23.677Z,100949.47
2022-11-24T21:31:51.493Z,100943.66
2022-11-24T21:34:19.477Z,100943.78
2022-11-24T21:36:47.480Z,100948.84
2022-11-24T21:39:15.562Z,100953.41
2022-11-24T21:41:43.431Z,100956.56
2022-11-24T21:44:12.935Z,100957.50
2022-11-24T21:46:46.091Z,100959.09
2022-11-24T21:49:18.579Z,100960.16
2022-11-24T21:51:46.111Z,100956.56
2022-11-24T21:54:13.659Z,100962.78
2022-11-24T21:56:41.229Z,100966.00
2022-11-24T21:59:08.752Z,100966.84
2022-11-24T22:01:36.301Z,100953.56
2022-11-24T22:04:03.962Z,100950.16
2022-11-24T22:06:33.337Z,100945.13
2022-11-24T22:09:00.961Z,100952.50
2022-11-24T22:11:28.393Z,100954.88
2022-11-24T22:13:55.927Z,100948.59
2022-11-24T22:16:24.849Z,100945.78
2022-11-24T22:18:52.468Z,100950.19
2022-11-24T22:21:23.906Z,100955.38
2022-11-24T22:23:52.640Z,100966.16
2022-11-24T22:26:22.224Z,100971.63
2022-11-24T22:28:50.224Z,100969.66
2022-11-24T22:31:20.482Z,100961.91
2022-11-24T22:33:49.095Z,100962.69
2022-11-24T22:36:20.708Z,100956.22
2022-11-24T22:38:52.416Z,100953.41
2022-11-24T22:41:20.396Z,100969.53
2022-11-24T22:43:48.149Z,100982.47
2022-11-24T22:46:18.252Z,100971.06
2022-11-24T22:48:47.596Z,100977.72
2022-11-24T22:51:17.410Z,100983.31
2022-11-24T22:53:49.346Z,100974.25
2022-11-24T22:56:17.475Z,100975.75
2022-11-24T22:58:45.359Z,100963.75
2022-11-24T23:01:15.423Z,100955.16
2022-11-24T23:03:44.144Z,100964.56
2022-11-24T23:06:18.218Z,100964.69
2022-11-24T23:08:46.157Z,100967.59
2022-11-24T23:11:25.881Z,100968.50
2022-11-24T23:13:58.438Z,100958.88
2022-11-24T23:16:26.405Z,100959.28
2022-11-24T23:18:54.206Z,100948.84
2022-11-24T23:21:24.375Z,100946.19
2022-11-24T23:23:52.784Z,100957.44
2022-11-24T23:26:23.456Z,100959.34
2022-11-24T23:28:51.561Z,100959.22
2022-11-24T23:31:21.667Z,100954.56
2022-11-24T23:33:49.536Z,100946.50
2022-11-24T23:36:20.182Z,100947.88
2022-11-24T23:38:48.489Z,100945.94
2022-11-24T23:41:21.441Z,100939.25
2022-11-24T23:43:49.283Z,100939.16
2022-11-24T23:46:20.646Z,100938.81
2022-11-24T23:48:49.568Z,100950.19
2022-11-24T23:51:19.394Z,100939.88
2022-11-24T23:53:47.673Z,100940.16
2022-11-24T23:56:22.736Z,100946.25
2022-11-24T23:58:50.447Z,100944.28
